Etusivu
METAR-TAF:

METAR-TAF

Lentoasemat :

Sanikiluaqin lentoasema

Sanikiluaq, Nunavut, Kanada

Leveyspiiri: 56-32N, Pituuspiiri: 079-15W, korkeus merenpinnasta: 32 m

Tämänhetkinen sää

Tämä raportti tehtiin 4 tuntia ja 35 minuuttia sitten, kello 22.00 UTC
Tuuli 16 kn pohjoisesta/koillisesta
Lämpötila 2°C
Kosteus 80%
Ilmanpaine 1012 hPa
Näkyvyys: 24.1 km
Hajonneita pilviä 14000 ft:n korkeudessa
Hajonneita pilviä 15000 ft:n korkeudessa

METAR: CYSK 032200Z 03016KT 15SM BKN140 BKN150 02/M01 A2988 RMK AC5AS2 LAST OBS/NEXT 041200UTC SLP123

Aika: 22:35 (02:35 UTC)


TAF: puuttuu

Säähavainnot ja -ennusteet yli 4000 lentoasemalta (METAR- ja TAF-raportit).

Käytössä olevat sääasemat on merkitty karttaan keltaisilla ja punaisilla pisteillä.

Aseta hiiri pisteen päälle nähdäksesi sääaseman nimen.

Klikkaa sitten nähdäksesi säähavainnot ja -ennusteet.

Kartan vaihtaminen: klikkaa mustalla rastilla varustettuja vihreitä pisteitä, niin voit zoomata sisään; viivalla varustettua vihreää pistettä, niin voit zoomata ulos tai vihreitä nuolia, niin pääset viereisille kartoille.


METAR-TAF: